createdAt,value
2018-03-11T00:00:30.834Z,0.00
2018-03-11T00:01:30.736Z,0.00
2018-03-11T00:02:51.769Z,0.00
2018-03-11T00:03:30.751Z,0.00
2018-03-11T00:04:30.779Z,0.00
2018-03-11T00:05:30.807Z,0.00
2018-03-11T00:06:30.809Z,0.00
2018-03-11T00:07:30.812Z,0.00
2018-03-11T00:08:51.838Z,0.00
2018-03-11T00:09:30.858Z,0.00
2018-03-11T00:10:30.849Z,0.00
2018-03-11T00:11:30.860Z,0.00
2018-03-11T00:12:30.869Z,0.00
2018-03-11T00:13:30.872Z,0.00
2018-03-11T00:14:51.891Z,0.00
2018-03-11T00:15:30.982Z,0.00
2018-03-11T00:16:30.927Z,0.00
2018-03-11T00:17:30.928Z,0.00
2018-03-11T00:18:30.941Z,0.00
2018-03-11T00:19:30.947Z,0.00
2018-03-11T00:20:51.962Z,0.00
2018-03-11T00:21:30.958Z,0.00
2018-03-11T00:22:31.015Z,0.00
2018-03-11T00:23:31.005Z,0.00
2018-03-11T00:24:31.004Z,0.00
2018-03-11T00:25:31.067Z,0.00
2018-03-11T00:26:52.019Z,0.00
2018-03-11T00:27:31.031Z,0.00
2018-03-11T00:28:31.053Z,0.00
2018-03-11T00:29:31.097Z,0.00
2018-03-11T00:30:31.063Z,0.00
2018-03-11T00:31:31.071Z,0.00
2018-03-11T00:32:52.121Z,0.00
2018-03-11T00:33:31.084Z,0.00
2018-03-11T00:34:31.122Z,0.00
2018-03-11T00:35:31.116Z,0.00
2018-03-11T00:36:31.120Z,0.00
2018-03-11T00:37:31.128Z,0.00
2018-03-11T00:38:52.161Z,0.00
2018-03-11T00:39:31.197Z,0.00
2018-03-11T00:40:31.181Z,0.00
2018-03-11T00:41:31.193Z,0.00
2018-03-11T00:42:31.190Z,0.00
2018-03-11T00:43:31.204Z,0.00
2018-03-11T00:44:52.288Z,0.00
2018-03-11T00:45:31.246Z,0.00
2018-03-11T00:46:31.233Z,0.00
2018-03-11T00:47:31.290Z,0.00
2018-03-11T00:48:31.258Z,0.00
2018-03-11T00:49:31.311Z,0.00
2018-03-11T00:50:52.299Z,0.00
2018-03-11T00:51:31.284Z,0.00
2018-03-11T00:52:31.288Z,0.00
2018-03-11T00:53:31.303Z,0.00
2018-03-11T00:54:31.309Z,0.00
2018-03-11T00:55:31.332Z,0.00
2018-03-11T00:56:52.388Z,0.00
2018-03-11T00:57:31.360Z,0.00
2018-03-11T00:58:31.429Z,0.00
2018-03-11T00:59:31.369Z,0.00
2018-03-11T01:00:31.402Z,0.00
2018-03-11T01:01:31.395Z,0.00
2018-03-11T01:02:52.410Z,0.00
2018-03-11T01:03:31.450Z,0.00
2018-03-11T01:04:31.428Z,0.00
2018-03-11T01:05:31.440Z,0.00
2018-03-11T01:06:31.466Z,0.00
2018-03-11T01:07:31.491Z,0.00
2018-03-11T01:08:52.484Z,0.00
2018-03-11T01:09:31.477Z,0.00
2018-03-11T01:10:31.513Z,0.00
2018-03-11T01:11:31.505Z,0.00
2018-03-11T01:12:31.512Z,0.00
2018-03-11T01:13:31.539Z,0.00
2018-03-11T01:14:52.560Z,0.00
2018-03-11T01:15:31.580Z,0.00
2018-03-11T01:16:31.556Z,0.00
2018-03-11T01:17:31.587Z,0.00
2018-03-11T01:18:31.598Z,0.00
2018-03-11T01:19:31.591Z,0.00
2018-03-11T01:20:52.614Z,0.00
2018-03-11T01:21:31.611Z,0.00
2018-03-11T01:22:31.634Z,0.00
2018-03-11T01:23:31.698Z,0.00
2018-03-11T01:24:31.665Z,0.00
2018-03-11T01:25:31.646Z,0.00
2018-03-11T01:26:52.675Z,0.00
2018-03-11T01:27:31.675Z,0.00
2018-03-11T01:28:31.693Z,0.00
2018-03-11T01:29:31.694Z,0.00
2018-03-11T01:30:31.715Z,0.00
2018-03-11T01:31:31.715Z,0.00
2018-03-11T01:32:52.740Z,0.00
2018-03-11T01:33:31.761Z,0.00
2018-03-11T01:34:31.756Z,0.00
2018-03-11T01:35:31.749Z,0.00
2018-03-11T01:36:31.772Z,0.00
2018-03-11T01:37:31.792Z,0.00
2018-03-11T01:38:52.810Z,0.00
2018-03-11T01:39:31.813Z,0.00
2018-03-11T01:40:31.824Z,0.00
2018-03-11T01:41:31.894Z,0.00
2018-03-11T01:42:31.908Z,0.00
2018-03-11T01:43:31.850Z,0.00
2018-03-11T01:44:52.880Z,0.00
2018-03-11T01:45:31.869Z,0.00
2018-03-11T01:46:31.936Z,0.00
2018-03-11T01:47:31.953Z,0.00
2018-03-11T01:48:31.919Z,0.00
2018-03-11T01:49:31.993Z,0.00
2018-03-11T01:50:52.959Z,0.00
2018-03-11T01:51:31.936Z,0.00
2018-03-11T01:52:31.966Z,0.00
2018-03-11T01:53:31.956Z,0.00
2018-03-11T01:54:32.005Z,0.00
2018-03-11T01:55:31.976Z,0.00
2018-03-11T01:56:53.033Z,0.00
2018-03-11T01:57:32.008Z,0.00
2018-03-11T01:58:32.131Z,0.00
2018-03-11T01:59:32.027Z,0.00
2018-03-11T02:00:32.034Z,0.00
2018-03-11T02:01:32.036Z,0.00
2018-03-11T02:02:53.069Z,0.00
2018-03-11T02:03:32.068Z,0.00
2018-03-11T02:04:32.140Z,0.00
2018-03-11T02:05:32.081Z,0.00
2018-03-11T02:06:32.104Z,0.00
2018-03-11T02:07:32.112Z,0.00
2018-03-11T02:08:53.123Z,0.00
2018-03-11T02:09:32.135Z,0.00
2018-03-11T02:10:32.145Z,0.00
2018-03-11T02:11:32.145Z,0.00
2018-03-11T02:12:32.162Z,0.00
2018-03-11T02:13:32.176Z,0.00
2018-03-11T02:14:53.199Z,0.00
2018-03-11T02:15:32.186Z,0.00
2018-03-11T02:16:32.202Z,0.00
2018-03-11T02:17:32.221Z,0.00
2018-03-11T02:18:32.277Z,0.00
2018-03-11T02:19:32.298Z,0.00
2018-03-11T02:20:53.254Z,0.00
2018-03-11T02:21:32.259Z,0.00
2018-03-11T02:22:32.260Z,0.00
2018-03-11T02:23:32.370Z,0.00
2018-03-11T02:24:32.296Z,0.00
2018-03-11T02:25:32.310Z,0.00
2018-03-11T02:26:53.369Z,0.00
2018-03-11T02:27:32.321Z,0.00
2018-03-11T02:28:32.324Z,0.00
2018-03-11T02:29:32.355Z,0.00
2018-03-11T02:30:32.360Z,0.00
2018-03-11T02:31:32.370Z,0.00
2018-03-11T02:32:53.384Z,0.00
2018-03-11T02:33:32.389Z,0.00
2018-03-11T02:34:32.390Z,0.00
2018-03-11T02:35:32.396Z,0.00
2018-03-11T02:36:32.478Z,0.00
2018-03-11T02:37:32.431Z,0.00
2018-03-11T02:38:53.449Z,0.00
2018-03-11T02:39:32.464Z,0.00
2018-03-11T02:40:32.459Z,0.00
2018-03-11T02:41:32.481Z,0.00
2018-03-11T02:42:32.471Z,0.00
2018-03-11T02:43:32.498Z,0.00
2018-03-11T02:44:53.562Z,0.00
2018-03-11T02:45:32.512Z,0.00
2018-03-11T02:46:32.593Z,0.00
2018-03-11T02:47:32.524Z,0.00
2018-03-11T02:48:32.537Z,0.00
2018-03-11T02:49:32.539Z,0.00
2018-03-11T02:50:53.565Z,0.00
2018-03-11T02:51:32.558Z,0.00
2018-03-11T02:52:32.582Z,0.00
2018-03-11T02:53:32.592Z,0.00
2018-03-11T02:54:32.600Z,0.00
2018-03-11T02:55:32.635Z,0.00
2018-03-11T02:56:53.636Z,0.00
2018-03-11T02:57:32.623Z,0.00
2018-03-11T02:58:32.658Z,0.00
2018-03-11T02:59:32.640Z,0.00
2018-03-11T03:00:32.674Z,0.00
2018-03-11T03:01:32.679Z,0.00
2018-03-11T03:02:53.696Z,0.00
2018-03-11T03:03:32.706Z,0.00
2018-03-11T03:04:32.712Z,0.00
2018-03-11T03:05:32.714Z,0.00
2018-03-11T03:06:32.791Z,0.00
2018-03-11T03:07:32.724Z,0.00
2018-03-11T03:08:53.746Z,0.00
2018-03-11T03:09:32.756Z,0.00
2018-03-11T03:10:32.762Z,0.00
2018-03-11T03:11:33.762Z,0.00
2018-03-11T03:12:32.773Z,0.00
2018-03-11T03:13:32.793Z,0.00
2018-03-11T03:14:53.808Z,0.00
2018-03-11T03:15:32.806Z,0.00
2018-03-11T03:16:32.821Z,0.00
2018-03-11T03:17:32.844Z,0.00
2018-03-11T03:18:32.868Z,0.00
2018-03-11T03:19:32.879Z,0.00
2018-03-11T03:20:53.881Z,0.00
2018-03-11T03:21:32.880Z,0.00
2018-03-11T03:22:32.920Z,0.00
2018-03-11T03:23:32.911Z,0.00
2018-03-11T03:24:32.904Z,0.00
2018-03-11T03:25:32.916Z,0.00
2018-03-11T03:26:53.938Z,0.00
2018-03-11T03:27:32.927Z,0.00
2018-03-11T03:28:32.951Z,0.00
2018-03-11T03:29:32.949Z,0.00
2018-03-11T03:30:32.955Z,0.00
2018-03-11T03:31:32.968Z,0.00
2018-03-11T03:32:54.008Z,0.00
2018-03-11T03:33:32.993Z,0.00
2018-03-11T03:34:33.019Z,0.00
2018-03-11T03:35:33.010Z,0.00
2018-03-11T03:36:33.056Z,0.00
2018-03-11T03:37:33.032Z,0.00
2018-03-11T03:38:54.092Z,0.00
2018-03-11T03:39:33.049Z,0.00
2018-03-11T03:40:33.065Z,0.00
2018-03-11T03:41:33.080Z,0.00
2018-03-11T03:42:33.084Z,0.00
2018-03-11T03:43:33.092Z,0.00
2018-03-11T03:44:54.125Z,0.00
2018-03-11T03:45:33.177Z,0.00
2018-03-11T03:46:33.120Z,0.00
2018-03-11T03:47:33.137Z,0.00
2018-03-11T03:48:33.189Z,0.00
2018-03-11T03:49:33.144Z,0.00
2018-03-11T03:50:54.194Z,0.00
2018-03-11T03:51:33.193Z,0.00
2018-03-11T03:52:33.203Z,0.00
2018-03-11T03:53:33.195Z,0.00
2018-03-11T03:54:33.211Z,0.00
2018-03-11T03:55:33.211Z,0.00
2018-03-11T03:56:54.240Z,0.00
2018-03-11T03:57:33.237Z,0.00
2018-03-11T03:58:33.255Z,0.00
2018-03-11T03:59:33.251Z,0.00
2018-03-11T04:00:33.269Z,0.00
2018-03-11T04:01:33.275Z,0.00
2018-03-11T04:02:54.289Z,0.00
2018-03-11T04:03:33.298Z,0.00
2018-03-11T04:04:33.315Z,0.00
2018-03-11T04:05:33.305Z,0.00
2018-03-11T04:06:33.320Z,0.00
2018-03-11T04:07:33.343Z,0.00
2018-03-11T04:08:54.343Z,0.00
2018-03-11T04:09:33.366Z,0.00
2018-03-11T04:10:33.373Z,0.00
2018-03-11T04:11:33.374Z,0.00
2018-03-11T04:12:33.395Z,0.00
2018-03-11T04:13:33.400Z,0.00
2018-03-11T04:14:54.407Z,0.00
2018-03-11T04:15:33.410Z,0.00
2018-03-11T04:16:33.422Z,0.00
2018-03-11T04:17:33.434Z,0.00
2018-03-11T04:18:33.432Z,0.00
2018-03-11T04:19:33.486Z,0.00
2018-03-11T04:20:54.493Z,0.00
2018-03-11T04:21:33.463Z,0.00
2018-03-11T04:22:33.464Z,0.00
2018-03-11T04:23:33.501Z,0.00
2018-03-11T04:24:33.517Z,0.00
2018-03-11T04:25:33.536Z,0.00
2018-03-11T04:26:54.529Z,0.00
2018-03-11T04:27:33.598Z,0.00
2018-03-11T04:28:33.547Z,0.00
2018-03-11T04:29:33.662Z,0.00
2018-03-11T04:30:33.563Z,0.00
2018-03-11T04:31:33.578Z,0.00
2018-03-11T04:32:54.600Z,0.00
2018-03-11T04:33:33.598Z,0.00
2018-03-11T04:34:33.614Z,0.00
2018-03-11T04:35:33.614Z,0.00
2018-03-11T04:36:33.624Z,0.00
2018-03-11T04:37:33.627Z,0.00
2018-03-11T04:38:54.647Z,0.00
2018-03-11T04:39:33.647Z,0.00
2018-03-11T04:40:33.652Z,0.00
2018-03-11T04:41:33.675Z,0.00
2018-03-11T04:42:33.672Z,0.00
2018-03-11T04:43:33.685Z,0.00
2018-03-11T04:44:54.698Z,0.00
2018-03-11T04:45:33.708Z,0.00
2018-03-11T04:46:33.710Z,0.00
2018-03-11T04:47:33.728Z,0.00
2018-03-11T04:48:33.731Z,0.00
2018-03-11T04:49:33.739Z,0.00
2018-03-11T04:50:54.752Z,0.00
2018-03-11T04:51:33.752Z,0.00
2018-03-11T04:52:33.812Z,0.00
2018-03-11T04:53:33.790Z,0.00
2018-03-11T04:54:33.805Z,0.00
2018-03-11T04:55:33.807Z,0.00
2018-03-11T04:56:54.824Z,0.00
2018-03-11T04:57:33.813Z,0.00
2018-03-11T04:58:33.824Z,0.00
2018-03-11T04:59:33.829Z,0.00
2018-03-11T05:00:33.838Z,0.00
2018-03-11T05:01:33.859Z,0.00
2018-03-11T05:02:54.886Z,0.00
2018-03-11T05:03:33.959Z,0.00
2018-03-11T05:04:33.891Z,0.00
2018-03-11T05:05:33.918Z,0.00
2018-03-11T05:06:33.905Z,0.00
2018-03-11T05:07:33.948Z,0.00
2018-03-11T05:08:54.938Z,0.00
2018-03-11T05:09:33.949Z,0.00
2018-03-11T05:10:33.940Z,0.00
2018-03-11T05:11:33.957Z,0.00
2018-03-11T05:12:33.966Z,0.00
2018-03-11T05:13:33.968Z,0.00
2018-03-11T05:14:54.992Z,0.00
2018-03-11T05:15:34.012Z,0.00
2018-03-11T05:16:34.006Z,0.00
2018-03-11T05:17:34.047Z,0.00
2018-03-11T05:18:34.013Z,0.00
2018-03-11T05:19:34.026Z,4.00
2018-03-11T05:20:55.129Z,4.00
2018-03-11T05:21:34.051Z,4.00
2018-03-11T05:22:34.060Z,0.00
2018-03-11T05:23:34.069Z,4.00
2018-03-11T05:24:34.067Z,4.00
2018-03-11T05:25:34.087Z,0.00
2018-03-11T05:26:55.108Z,4.00
2018-03-11T05:27:34.184Z,4.00
2018-03-11T05:28:34.106Z,8.00
2018-03-11T05:29:34.121Z,8.00
2018-03-11T05:30:34.128Z,12.00
2018-03-11T05:31:34.146Z,12.00
2018-03-11T05:32:55.179Z,12.00
2018-03-11T05:33:34.163Z,16.00
2018-03-11T05:34:34.166Z,20.00
2018-03-11T05:35:34.175Z,24.00
2018-03-11T05:36:34.180Z,28.00
2018-03-11T05:37:34.206Z,32.00
2018-03-11T05:38:55.226Z,40.00
2018-03-11T05:39:34.226Z,48.00
2018-03-11T05:40:34.239Z,60.00
2018-03-11T05:41:34.242Z,72.00
2018-03-11T05:42:34.245Z,84.00
2018-03-11T05:43:34.252Z,100.00
2018-03-11T05:44:55.288Z,108.00
2018-03-11T05:45:34.274Z,116.00
2018-03-11T05:46:34.281Z,128.00
2018-03-11T05:47:34.310Z,136.00
2018-03-11T05:48:34.328Z,152.00
2018-03-11T05:49:34.315Z,164.00
2018-03-11T05:50:55.340Z,180.00
2018-03-11T05:51:34.337Z,196.00
2018-03-11T05:52:34.337Z,208.00
2018-03-11T05:53:34.352Z,220.00
2018-03-11T05:54:34.358Z,240.00
2018-03-11T05:55:34.420Z,260.00
2018-03-11T05:56:55.391Z,280.00
2018-03-11T05:57:34.387Z,308.00
2018-03-11T05:58:34.401Z,336.00
2018-03-11T05:59:34.415Z,368.00
2018-03-11T06:00:34.423Z,400.00
2018-03-11T06:01:34.427Z,432.00
2018-03-11T06:02:55.437Z,468.00
2018-03-11T06:03:34.450Z,500.00
2018-03-11T06:04:34.454Z,544.00
2018-03-11T06:05:34.471Z,584.00
2018-03-11T06:06:34.473Z,632.00
2018-03-11T06:07:34.486Z,688.00
2018-03-11T06:08:55.502Z,740.00
2018-03-11T06:09:34.513Z,784.00
2018-03-11T06:10:34.585Z,820.00
2018-03-11T06:11:34.515Z,864.00
2018-03-11T06:12:34.528Z,920.00
2018-03-11T06:13:34.546Z,976.00
2018-03-11T06:14:55.571Z,1028.00
2018-03-11T06:15:34.579Z,1088.00
2018-03-11T06:16:34.565Z,1148.00
2018-03-11T06:17:34.575Z,1220.00
2018-03-11T06:18:34.581Z,1284.00
2018-03-11T06:19:34.592Z,1344.00
2018-03-11T06:20:55.628Z,1400.00
2018-03-11T06:21:34.616Z,1456.00
2018-03-11T06:22:34.616Z,1552.00
2018-03-11T06:23:34.642Z,1644.00
2018-03-11T06:24:34.650Z,1720.00
2018-03-11T06:25:34.652Z,1816.00
2018-03-11T06:26:55.680Z,1996.00
2018-03-11T06:27:34.686Z,2404.00
2018-03-11T06:28:34.733Z,2856.00
2018-03-11T06:29:34.699Z,2540.00
2018-03-11T06:30:34.729Z,3216.00
2018-03-11T06:31:34.701Z,3328.00
2018-03-11T06:32:55.735Z,2980.00
2018-03-11T06:33:34.728Z,2632.00
2018-03-11T06:34:34.739Z,2836.00
2018-03-11T06:35:34.777Z,2808.00
2018-03-11T06:36:34.766Z,2828.00
2018-03-11T06:37:34.773Z,2968.00
2018-03-11T06:38:55.832Z,3180.00
2018-03-11T06:39:34.792Z,3432.00
2018-03-11T06:40:34.798Z,3824.00
2018-03-11T06:41:34.807Z,4484.00
2018-03-11T06:42:34.816Z,4744.00
2018-03-11T06:43:34.864Z,4460.00
2018-03-11T06:44:55.852Z,4332.00
2018-03-11T06:45:34.858Z,4356.00
2018-03-11T06:46:34.860Z,4632.00
2018-03-11T06:47:34.867Z,4868.00
2018-03-11T06:48:34.900Z,5832.00
2018-03-11T06:49:34.885Z,4140.00
2018-03-11T06:50:55.899Z,3924.00
2018-03-11T06:51:34.899Z,4016.00
2018-03-11T06:52:34.912Z,4524.00
2018-03-11T06:53:35.017Z,4896.00
2018-03-11T06:54:34.930Z,4392.00
2018-03-11T06:55:34.940Z,5116.00
2018-03-11T06:56:55.961Z,5368.00
2018-03-11T06:57:34.966Z,5820.00
2018-03-11T06:58:34.994Z,4740.00
2018-03-11T06:59:34.982Z,5588.00
2018-03-11T07:00:34.995Z,5868.00
2018-03-11T07:01:35.006Z,5740.00
2018-03-11T07:02:56.019Z,5492.00
2018-03-11T07:03:35.040Z,4564.00
2018-03-11T07:04:35.030Z,4416.00
2018-03-11T07:05:35.037Z,4500.00
2018-03-11T07:06:35.056Z,5096.00
2018-03-11T07:07:35.068Z,5880.00
2018-03-11T07:08:56.092Z,5020.00
2018-03-11T07:09:35.085Z,4784.00
2018-03-11T07:10:35.102Z,5908.00
2018-03-11T07:11:35.113Z,6256.00
2018-03-11T07:12:35.103Z,5336.00
2018-03-11T07:13:35.119Z,5948.00
2018-03-11T07:14:56.138Z,5368.00
2018-03-11T07:15:35.143Z,5084.00
2018-03-11T07:16:35.163Z,4988.00
2018-03-11T07:17:35.153Z,5096.00
2018-03-11T07:18:35.168Z,4872.00
2018-03-11T07:19:35.186Z,4776.00
2018-03-11T07:20:56.209Z,4824.00
2018-03-11T07:21:35.195Z,4928.00
2018-03-11T07:22:35.233Z,4988.00
2018-03-11T07:23:35.224Z,4780.00
2018-03-11T07:24:35.246Z,4228.00
2018-03-11T07:25:35.250Z,3824.00
2018-03-11T07:26:56.272Z,3716.00
2018-03-11T07:27:35.261Z,3840.00
2018-03-11T07:28:35.282Z,3872.00
2018-03-11T07:29:35.289Z,3956.00
2018-03-11T07:30:35.296Z,4236.00
2018-03-11T07:31:35.303Z,4396.00
2018-03-11T07:32:57.227Z,4388.00
2018-03-11T07:33:35.320Z,4544.00
2018-03-11T07:34:35.335Z,5016.00
2018-03-11T07:35:35.363Z,5652.00
2018-03-11T07:36:35.349Z,5976.00
2018-03-11T07:37:35.361Z,6836.00
2018-03-11T07:38:56.388Z,10764.00
2018-03-11T07:39:35.383Z,16256.00
2018-03-11T07:40:35.383Z,10456.00
2018-03-11T07:41:35.476Z,12836.00
2018-03-11T07:42:35.409Z,11784.00
2018-03-11T07:43:35.433Z,15252.00
2018-03-11T07:44:56.463Z,15632.00
2018-03-11T07:45:35.469Z,17760.00
2018-03-11T07:46:35.457Z,15036.00
2018-03-11T07:47:35.484Z,17792.00
2018-03-11T07:48:35.481Z,10764.00
2018-03-11T07:49:35.501Z,8676.00
2018-03-11T07:50:56.535Z,6024.00
2018-03-11T07:51:35.516Z,5780.00
2018-03-11T07:52:35.517Z,5768.00
2018-03-11T07:53:35.528Z,5776.00
2018-03-11T07:54:35.577Z,5796.00
2018-03-11T07:55:35.557Z,5716.00
2018-03-11T07:56:56.594Z,5576.00
2018-03-11T07:57:35.573Z,5660.00
2018-03-11T07:58:35.608Z,5668.00
2018-03-11T07:59:35.601Z,5660.00
2018-03-11T08:00:35.617Z,5648.00
2018-03-11T08:01:35.615Z,5608.00
2018-03-11T08:02:56.636Z,5424.00
2018-03-11T08:03:35.645Z,5152.00
2018-03-11T08:04:35.661Z,4792.00
2018-03-11T08:05:35.663Z,4388.00
2018-03-11T08:06:35.685Z,4056.00
2018-03-11T08:07:35.696Z,3840.00
2018-03-11T08:08:56.706Z,3664.00
2018-03-11T08:09:35.717Z,3372.00
2018-03-11T08:10:35.734Z,3168.00
2018-03-11T08:11:35.723Z,3164.00
2018-03-11T08:12:35.737Z,3400.00
2018-03-11T08:13:35.758Z,3736.00
2018-03-11T08:14:56.770Z,3992.00
2018-03-11T08:15:35.766Z,4068.00
2018-03-11T08:16:35.777Z,3900.00
2018-03-11T08:17:35.788Z,3664.00
2018-03-11T08:18:35.812Z,3536.00
2018-03-11T08:19:35.817Z,3428.00
2018-03-11T08:20:56.842Z,3464.00
2018-03-11T08:21:35.843Z,3552.00
2018-03-11T08:22:35.857Z,3628.00
2018-03-11T08:23:35.880Z,3844.00
2018-03-11T08:24:35.875Z,4120.00
2018-03-11T08:25:35.882Z,4424.00
2018-03-11T08:26:56.914Z,4860.00
2018-03-11T08:27:35.898Z,5452.00
2018-03-11T08:28:35.943Z,6356.00
2018-03-11T08:29:36.009Z,6956.00
2018-03-11T08:30:35.929Z,7604.00
2018-03-11T08:31:35.932Z,8188.00
2018-03-11T08:32:56.966Z,8132.00
2018-03-11T08:33:35.951Z,7824.00
2018-03-11T08:34:35.970Z,7588.00
2018-03-11T08:35:35.980Z,7340.00
2018-03-11T08:38:18.209Z,9460.00
2018-03-11T08:39:39.228Z,6320.00
2018-03-11T08:40:18.233Z,5592.00
2018-03-11T08:41:18.266Z,5048.00
2018-03-11T08:42:18.264Z,4452.00
2018-03-11T08:43:18.262Z,4208.00
2018-03-11T08:44:18.269Z,4112.00
2018-03-11T08:45:39.289Z,4220.00
2018-03-11T08:46:18.304Z,4092.00
2018-03-11T08:47:18.319Z,3984.00
2018-03-11T08:48:18.355Z,3848.00
2018-03-11T08:49:18.323Z,3764.00
2018-03-11T08:50:18.334Z,3684.00
2018-03-11T08:51:39.371Z,3452.00
2018-03-11T08:52:18.410Z,3232.00
2018-03-11T08:53:18.381Z,3112.00
2018-03-11T08:54:18.391Z,2952.00
2018-03-11T08:55:18.400Z,2696.00
2018-03-11T08:56:18.407Z,2600.00
2018-03-11T08:57:39.431Z,2568.00
2018-03-11T08:58:18.425Z,2444.00
2018-03-11T08:59:18.505Z,2480.00
2018-03-11T09:00:18.466Z,2600.00
2018-03-11T09:01:18.458Z,2656.00
2018-03-11T09:02:18.491Z,2748.00
2018-03-11T09:03:39.512Z,3020.00
2018-03-11T09:04:18.501Z,3120.00
2018-03-11T09:05:18.539Z,3288.00
2018-03-11T09:06:18.520Z,3424.00
2018-03-11T09:07:19.272Z,3592.00
2018-03-11T09:08:18.539Z,4092.00
2018-03-11T09:09:39.567Z,4444.00
2018-03-11T09:10:18.601Z,4708.00
2018-03-11T09:11:18.566Z,4996.00
2018-03-11T09:12:18.585Z,5256.00
2018-03-11T09:13:18.589Z,5496.00
2018-03-11T09:14:18.606Z,5312.00
2018-03-11T09:15:39.619Z,4800.00
2018-03-11T09:16:18.621Z,4424.00
2018-03-11T09:17:18.632Z,4144.00
2018-03-11T09:18:18.639Z,4244.00
2018-03-11T09:19:18.662Z,4612.00
2018-03-11T09:20:18.678Z,5040.00
2018-03-11T09:21:39.715Z,5276.00
2018-03-11T09:22:18.692Z,5312.00
2018-03-11T09:23:18.753Z,5224.00
2018-03-11T09:24:18.719Z,5360.00
2018-03-11T09:25:18.734Z,5968.00
2018-03-11T09:26:18.735Z,6636.00
2018-03-11T09:27:39.772Z,7400.00
2018-03-11T09:28:18.767Z,8716.00
2018-03-11T09:29:18.769Z,10640.00
2018-03-11T09:30:18.899Z,15208.00
2018-03-11T09:31:18.794Z,19840.00
2018-03-11T09:32:18.812Z,30496.00
2018-03-11T09:33:39.824Z,20608.00
2018-03-11T09:34:18.827Z,32736.00
2018-03-11T09:35:18.885Z,16808.00
2018-03-11T09:36:18.874Z,16004.00
2018-03-11T09:37:18.891Z,17536.00
2018-03-11T09:38:18.894Z,29024.00
2018-03-11T09:39:39.903Z,25920.00
2018-03-11T09:40:18.970Z,26048.00
2018-03-11T09:41:18.912Z,18272.00
2018-03-11T09:42:18.943Z,14948.00
2018-03-11T09:43:18.966Z,13660.00
2018-03-11T09:44:18.961Z,11952.00
2018-03-11T09:45:39.960Z,11692.00
2018-03-11T09:46:18.974Z,11164.00
2018-03-11T09:47:18.983Z,10208.00
2018-03-11T09:48:19.024Z,8840.00
2018-03-11T09:49:19.001Z,8400.00
2018-03-11T09:50:19.026Z,7896.00
2018-03-11T09:51:40.053Z,7428.00
2018-03-11T09:52:19.049Z,6928.00
2018-03-11T09:53:19.072Z,6572.00
2018-03-11T09:54:19.066Z,6876.00
2018-03-11T09:55:19.132Z,7076.00
2018-03-11T09:56:19.138Z,5964.00
2018-03-11T09:57:40.135Z,5220.00
2018-03-11T09:58:19.142Z,4640.00
2018-03-11T09:59:19.142Z,4244.00
2018-03-11T10:00:19.147Z,4164.00
2018-03-11T10:01:19.180Z,4188.00
2018-03-11T10:02:19.181Z,4132.00
2018-03-11T10:03:40.193Z,4272.00
2018-03-11T10:04:19.207Z,4480.00
2018-03-11T10:05:19.813Z,4524.00
2018-03-11T10:06:19.224Z,4716.00
2018-03-11T10:07:19.235Z,5176.00
2018-03-11T10:08:19.256Z,5192.00
2018-03-11T10:09:40.353Z,4880.00
2018-03-11T10:10:19.279Z,4360.00
2018-03-11T10:11:19.374Z,4100.00
2018-03-11T10:12:19.306Z,4168.00
2018-03-11T10:13:19.366Z,4228.00
2018-03-11T10:14:19.361Z,4136.00
2018-03-11T10:15:40.395Z,4164.00
2018-03-11T10:16:19.423Z,4416.00
2018-03-11T10:17:19.383Z,4980.00
2018-03-11T10:18:19.361Z,5592.00
2018-03-11T10:19:19.382Z,5840.00
2018-03-11T10:20:19.394Z,6132.00
2018-03-11T10:21:40.438Z,6796.00
2018-03-11T10:22:19.438Z,8460.00
2018-03-11T10:23:19.443Z,10808.00
2018-03-11T10:24:19.448Z,11432.00
2018-03-11T10:25:19.470Z,10108.00
2018-03-11T10:26:19.524Z,8656.00
2018-03-11T10:27:40.487Z,8004.00
2018-03-11T10:28:19.524Z,8212.00
2018-03-11T10:29:19.557Z,8768.00
2018-03-11T10:30:19.556Z,9740.00
2018-03-11T10:31:19.528Z,10712.00
2018-03-11T10:32:19.537Z,10224.00
2018-03-11T10:33:40.589Z,9120.00
2018-03-11T10:34:19.560Z,9908.00
2018-03-11T10:35:19.582Z,8668.00
2018-03-11T10:36:19.602Z,7436.00
2018-03-11T10:37:19.590Z,6724.00
2018-03-11T10:38:19.617Z,10200.00
2018-03-11T10:39:40.649Z,15448.00
2018-03-11T10:40:19.641Z,15924.00
2018-03-11T10:41:19.645Z,17696.00
2018-03-11T10:42:19.676Z,18272.00
2018-03-11T10:43:19.695Z,30496.00
2018-03-11T10:44:19.686Z,22144.00
2018-03-11T10:45:40.781Z,15476.00
2018-03-11T10:46:19.727Z,14536.00
2018-03-11T10:47:19.725Z,12140.00
2018-03-11T10:48:19.732Z,11012.00
2018-03-11T10:49:19.752Z,10788.00
2018-03-11T10:50:19.943Z,9828.00
2018-03-11T10:51:40.780Z,8692.00
2018-03-11T10:52:19.802Z,7888.00
2018-03-11T10:53:19.855Z,7148.00
2018-03-11T10:54:19.831Z,7096.00
2018-03-11T10:55:19.824Z,7636.00
2018-03-11T10:56:19.846Z,9080.00
2018-03-11T10:57:40.880Z,10680.00
2018-03-11T10:58:19.885Z,11676.00
2018-03-11T10:59:19.884Z,11952.00
2018-03-11T11:00:19.905Z,12072.00
2018-03-11T11:01:19.908Z,12600.00
2018-03-11T11:02:19.914Z,13104.00
2018-03-11T11:03:40.962Z,15132.00
2018-03-11T11:04:19.943Z,16152.00
2018-03-11T11:05:19.952Z,15336.00
2018-03-11T11:06:19.974Z,13388.00
2018-03-11T11:07:19.977Z,12032.00
2018-03-11T11:08:20.002Z,10984.00
2018-03-11T11:09:41.811Z,9612.00
2018-03-11T11:10:20.018Z,8804.00
2018-03-11T11:11:20.028Z,9076.00
2018-03-11T11:12:20.049Z,9868.00
2018-03-11T11:13:20.063Z,10708.00
2018-03-11T11:14:20.077Z,11732.00
2018-03-11T11:15:41.104Z,12196.00
2018-03-11T11:16:20.090Z,12616.00
2018-03-11T11:17:20.120Z,13076.00
2018-03-11T11:18:20.132Z,14276.00
2018-03-11T11:19:20.169Z,13960.00
2018-03-11T11:20:20.156Z,15648.00
2018-03-11T11:21:41.167Z,16668.00
2018-03-11T11:22:20.196Z,11696.00
2018-03-11T11:23:20.188Z,9796.00
2018-03-11T11:24:20.192Z,8788.00
2018-03-11T11:25:20.332Z,8544.00
2018-03-11T11:26:20.228Z,8672.00
2018-03-11T11:27:41.262Z,8832.00
2018-03-11T11:28:20.275Z,8916.00
2018-03-11T11:29:20.262Z,9496.00
2018-03-11T11:30:20.285Z,10596.00
2018-03-11T11:31:20.402Z,10164.00
2018-03-11T11:32:20.316Z,9848.00
2018-03-11T11:33:41.350Z,9752.00
2018-03-11T11:34:20.352Z,9608.00
2018-03-11T11:35:20.461Z,9368.00
2018-03-11T11:36:20.377Z,9072.00
2018-03-11T11:37:20.376Z,8820.00
2018-03-11T11:38:20.398Z,8372.00
2018-03-11T11:39:41.455Z,7928.00
2018-03-11T11:40:20.422Z,7428.00
2018-03-11T11:41:20.434Z,6888.00
2018-03-11T11:42:20.453Z,6580.00
2018-03-11T11:43:20.458Z,6524.00
2018-03-11T11:44:20.471Z,6736.00
2018-03-11T11:45:41.522Z,7240.00
2018-03-11T11:46:20.502Z,7956.00
2018-03-11T11:47:20.517Z,8556.00
2018-03-11T11:48:20.526Z,8988.00
2018-03-11T11:49:20.534Z,9404.00
2018-03-11T11:50:20.578Z,9692.00
2018-03-11T11:51:41.595Z,9884.00
2018-03-11T11:52:20.570Z,10128.00
2018-03-11T11:53:20.593Z,10396.00
2018-03-11T11:54:20.613Z,10580.00
2018-03-11T11:55:20.724Z,10784.00
2018-03-11T11:56:20.623Z,11056.00
2018-03-11T11:57:41.665Z,11456.00
2018-03-11T11:58:20.664Z,11932.00
2018-03-11T11:59:20.667Z,12516.00
2018-03-11T12:00:20.702Z,13524.00
2018-03-11T12:01:20.717Z,13804.00
2018-03-11T12:02:20.708Z,13444.00
2018-03-11T12:03:41.733Z,14048.00
2018-03-11T12:04:20.738Z,14656.00
2018-03-11T12:05:20.837Z,14352.00
2018-03-11T12:06:20.822Z,13464.00
2018-03-11T12:07:20.785Z,11568.00
2018-03-11T12:08:20.807Z,10460.00
2018-03-11T12:09:41.823Z,9952.00
2018-03-11T12:10:20.807Z,9364.00
2018-03-11T12:11:20.825Z,9416.00
2018-03-11T12:12:20.838Z,9844.00
2018-03-11T12:13:20.850Z,8624.00
2018-03-11T12:14:20.952Z,6952.00
2018-03-11T12:15:41.903Z,6108.00
2018-03-11T12:16:20.963Z,5588.00
2018-03-11T12:17:20.918Z,4696.00
2018-03-11T12:18:20.931Z,4052.00
2018-03-11T12:19:20.932Z,3168.00
2018-03-11T12:20:21.101Z,2800.00
2018-03-11T12:21:41.975Z,2180.00
2018-03-11T12:22:21.064Z,2008.00
2018-03-11T12:23:20.985Z,1688.00
2018-03-11T12:24:20.999Z,1620.00
2018-03-11T12:25:21.009Z,1736.00
2018-03-11T12:26:21.024Z,1788.00
2018-03-11T12:27:42.057Z,1800.00
2018-03-11T12:28:21.055Z,2036.00
2018-03-11T12:29:21.060Z,2508.00
2018-03-11T12:30:21.086Z,2868.00
2018-03-11T12:31:21.083Z,2768.00
2018-03-11T12:32:21.127Z,3384.00
2018-03-11T12:33:42.128Z,3968.00
2018-03-11T12:34:21.127Z,4600.00
2018-03-11T12:35:21.250Z,5516.00
2018-03-11T12:36:21.151Z,6104.00